CheckWX is a tool to help pilots better visualize weather data.  It is not intended as a substitute for an official pre-flight weather briefing.

20:29:44 UTC

KBEC METAR
Beech Factory Airport
Wichita, Kansas, USA
Current

15 mins ago

KBEC 222015Z AUTO 14007KT 10SM CLR 19/M01 A3010 RMK AO2 T01901014
Observed
Mar-22 @ 20:15 UTC
Wind
  • 140° at 7 KTS
Visibility
10 SM
Flight Rules
VFR
Cloud Levels
  • Clear skies
Temperature
19°C / 66°F
Dewpoint
-1°C / 30°F
Humidity
26%
Altimeter
30.1" Hg
Pressure
1019.32 hPa
Previous

35 mins ago

KBEC 221955Z AUTO 16005KT 10SM CLR 18/M02 A3011 RMK AO2 T01831016
Observed
Mar-22 @ 19:55 UTC
Wind
  • 160° at 5 KTS
Visibility
10 SM
Flight Rules
VFR
Cloud Levels
  • Clear skies
Temperature
18°C / 64°F
Dewpoint
-2°C / 28°F
Humidity
26%
Altimeter
30.11" Hg
Pressure
1019.62 hPa
Previous

55 mins ago

KBEC 221935Z AUTO 20007KT 10SM CLR 19/M02 A3013 RMK AO2 T01861017
Observed
Mar-22 @ 19:35 UTC
Wind
  • 200° at 7 KTS
Visibility
10 SM
Flight Rules
VFR
Cloud Levels
  • Clear skies
Temperature
19°C / 66°F
Dewpoint
-2°C / 28°F
Humidity
24%
Altimeter
30.13" Hg
Pressure
1020.32 hPa